sensor_id;sensor_type;location;lat;lon;timestamp;temperature;humidity
20492;DHT22;10404;51.468;6.762;2024-03-02T00:02:01;7.40;70.60
20492;DHT22;10404;51.468;6.762;2024-03-02T00:04:27;7.40;70.70
20492;DHT22;10404;51.468;6.762;2024-03-02T00:06:53;7.40;70.70
20492;DHT22;10404;51.468;6.762;2024-03-02T00:09:20;7.40;70.70
20492;DHT22;10404;51.468;6.762;2024-03-02T00:11:45;7.40;70.80
20492;DHT22;10404;51.468;6.762;2024-03-02T00:14:11;7.40;70.80
20492;DHT22;10404;51.468;6.762;2024-03-02T00:16:37;7.30;70.80
20492;DHT22;10404;51.468;6.762;2024-03-02T00:19:03;7.30;70.90
20492;DHT22;10404;51.468;6.762;2024-03-02T00:21:31;7.30;70.90
20492;DHT22;10404;51.468;6.762;2024-03-02T00:23:57;7.30;70.90
20492;DHT22;10404;51.468;6.762;2024-03-02T00:26:22;7.20;70.90
20492;DHT22;10404;51.468;6.762;2024-03-02T00:28:48;7.20;71.00
20492;DHT22;10404;51.468;6.762;2024-03-02T00:31:16;7.20;71.00
20492;DHT22;10404;51.468;6.762;2024-03-02T00:33:45;7.20;71.00
20492;DHT22;10404;51.468;6.762;2024-03-02T00:36:16;7.20;71.00
20492;DHT22;10404;51.468;6.762;2024-03-02T00:38:49;7.20;71.00
20492;DHT22;10404;51.468;6.762;2024-03-02T00:46:22;7.20;71.10
20492;DHT22;10404;51.468;6.762;2024-03-02T00:48:53;7.20;71.10
20492;DHT22;10404;51.468;6.762;2024-03-02T00:51:23;7.20;71.10
20492;DHT22;10404;51.468;6.762;2024-03-02T00:53:49;7.20;71.10
20492;DHT22;10404;51.468;6.762;2024-03-02T00:56:15;7.20;71.10
20492;DHT22;10404;51.468;6.762;2024-03-02T00:58:40;7.20;71.20
20492;DHT22;10404;51.468;6.762;2024-03-02T01:01:06;7.20;71.20
20492;DHT22;10404;51.468;6.762;2024-03-02T01:03:33;7.20;71.20
20492;DHT22;10404;51.468;6.762;2024-03-02T01:05:59;7.20;71.10
20492;DHT22;10404;51.468;6.762;2024-03-02T01:08:25;7.20;71.20
20492;DHT22;10404;51.468;6.762;2024-03-02T01:10:51;7.20;71.20
20492;DHT22;10404;51.468;6.762;2024-03-02T01:13:16;7.20;71.20
20492;DHT22;10404;51.468;6.762;2024-03-02T01:15:42;7.20;71.20
20492;DHT22;10404;51.468;6.762;2024-03-02T01:18:08;7.20;71.20
20492;DHT22;10404;51.468;6.762;2024-03-02T01:20:34;7.20;71.30
20492;DHT22;10404;51.468;6.762;2024-03-02T01:22:59;7.20;71.30
20492;DHT22;10404;51.468;6.762;2024-03-02T01:25:25;7.20;71.40
20492;DHT22;10404;51.468;6.762;2024-03-02T01:27:50;7.20;71.30
20492;DHT22;10404;51.468;6.762;2024-03-02T01:30:16;7.20;71.30
20492;DHT22;10404;51.468;6.762;2024-03-02T01:32:41;7.20;71.40
20492;DHT22;10404;51.468;6.762;2024-03-02T01:35:07;7.20;71.40
20492;DHT22;10404;51.468;6.762;2024-03-02T01:37:33;7.20;71.40
20492;DHT22;10404;51.468;6.762;2024-03-02T01:39:58;7.20;71.40
20492;DHT22;10404;51.468;6.762;2024-03-02T01:42:24;7.20;71.40
20492;DHT22;10404;51.468;6.762;2024-03-02T01:44:50;7.20;71.40
20492;DHT22;10404;51.468;6.762;2024-03-02T01:47:16;7.20;71.40
20492;DHT22;10404;51.468;6.762;2024-03-02T01:49:42;7.20;71.40
20492;DHT22;10404;51.468;6.762;2024-03-02T01:52:07;7.10;71.50
20492;DHT22;10404;51.468;6.762;2024-03-02T01:54:33;7.10;71.40
20492;DHT22;10404;51.468;6.762;2024-03-02T01:56:59;7.20;71.50
20492;DHT22;10404;51.468;6.762;2024-03-02T01:59:25;7.10;71.50
20492;DHT22;10404;51.468;6.762;2024-03-02T02:01:51;7.10;71.50
20492;DHT22;10404;51.468;6.762;2024-03-02T02:04:16;7.10;71.60
20492;DHT22;10404;51.468;6.762;2024-03-02T02:06:44;7.10;71.50
20492;DHT22;10404;51.468;6.762;2024-03-02T02:09:10;7.10;71.60
20492;DHT22;10404;51.468;6.762;2024-03-02T02:11:35;7.00;71.50
20492;DHT22;10404;51.468;6.762;2024-03-02T02:14:01;7.00;71.60
20492;DHT22;10404;51.468;6.762;2024-03-02T02:16:26;7.00;71.60
20492;DHT22;10404;51.468;6.762;2024-03-02T02:18:52;7.10;71.70
20492;DHT22;10404;51.468;6.762;2024-03-02T02:21:17;7.00;71.60
20492;DHT22;10404;51.468;6.762;2024-03-02T02:23:43;7.00;71.70
20492;DHT22;10404;51.468;6.762;2024-03-02T02:26:12;7.00;71.70
20492;DHT22;10404;51.468;6.762;2024-03-02T02:28:37;7.00;71.80
20492;DHT22;10404;51.468;6.762;2024-03-02T02:31:03;7.00;71.70
20492;DHT22;10404;51.468;6.762;2024-03-02T02:33:29;7.00;71.60
20492;DHT22;10404;51.468;6.762;2024-03-02T02:35:54;7.00;71.70
20492;DHT22;10404;51.468;6.762;2024-03-02T02:38:20;7.00;71.70
20492;DHT22;10404;51.468;6.762;2024-03-02T02:40:46;7.00;71.70
20492;DHT22;10404;51.468;6.762;2024-03-02T02:43:11;7.00;71.70
20492;DHT22;10404;51.468;6.762;2024-03-02T02:45:37;7.00;71.70
20492;DHT22;10404;51.468;6.762;2024-03-02T02:48:03;7.00;71.70
20492;DHT22;10404;51.468;6.762;2024-03-02T02:50:28;7.00;71.70
20492;DHT22;10404;51.468;6.762;2024-03-02T02:52:54;7.00;71.70
20492;DHT22;10404;51.468;6.762;2024-03-02T02:55:19;7.00;71.70
20492;DHT22;10404;51.468;6.762;2024-03-02T02:57:45;7.00;71.80
20492;DHT22;10404;51.468;6.762;2024-03-02T03:00:13;7.00;71.80
20492;DHT22;10404;51.468;6.762;2024-03-02T03:02:43;7.10;71.70
20492;DHT22;10404;51.468;6.762;2024-03-02T03:05:10;7.10;71.80
20492;DHT22;10404;51.468;6.762;2024-03-02T03:07:37;7.10;71.80
20492;DHT22;10404;51.468;6.762;2024-03-02T03:10:04;7.00;71.80
20492;DHT22;10404;51.468;6.762;2024-03-02T03:12:30;7.10;71.90
20492;DHT22;10404;51.468;6.762;2024-03-02T03:14:56;7.10;71.90
20492;DHT22;10404;51.468;6.762;2024-03-02T03:17:22;7.10;71.90
20492;DHT22;10404;51.468;6.762;2024-03-02T03:19:49;7.10;71.90
20492;DHT22;10404;51.468;6.762;2024-03-02T03:22:14;7.10;71.90
20492;DHT22;10404;51.468;6.762;2024-03-02T03:24:40;7.00;71.80
20492;DHT22;10404;51.468;6.762;2024-03-02T03:27:05;7.10;71.90
20492;DHT22;10404;51.468;6.762;2024-03-02T03:29:31;7.10;71.90
20492;DHT22;10404;51.468;6.762;2024-03-02T03:31:56;7.00;72.00
20492;DHT22;10404;51.468;6.762;2024-03-02T03:34:22;7.10;71.90
20492;DHT22;10404;51.468;6.762;2024-03-02T03:36:47;7.00;71.90
20492;DHT22;10404;51.468;6.762;2024-03-02T03:39:13;7.00;72.00
20492;DHT22;10404;51.468;6.762;2024-03-02T03:41:40;7.10;72.00
20492;DHT22;10404;51.468;6.762;2024-03-02T03:44:06;7.10;72.00
20492;DHT22;10404;51.468;6.762;2024-03-02T03:46:31;7.10;71.90
20492;DHT22;10404;51.468;6.762;2024-03-02T03:48:57;7.00;72.00
20492;DHT22;10404;51.468;6.762;2024-03-02T03:51:22;7.10;72.00
20492;DHT22;10404;51.468;6.762;2024-03-02T03:53:48;7.10;72.00
20492;DHT22;10404;51.468;6.762;2024-03-02T03:56:14;7.10;72.00
20492;DHT22;10404;51.468;6.762;2024-03-02T03:58:39;7.10;72.00
20492;DHT22;10404;51.468;6.762;2024-03-02T04:01:05;7.10;72.00
20492;DHT22;10404;51.468;6.762;2024-03-02T04:03:30;7.00;72.00
20492;DHT22;10404;51.468;6.762;2024-03-02T04:05:56;7.00;72.10
20492;DHT22;10404;51.468;6.762;2024-03-02T04:08:22;7.10;72.10
20492;DHT22;10404;51.468;6.762;2024-03-02T04:10:47;7.10;72.10
20492;DHT22;10404;51.468;6.762;2024-03-02T04:13:13;7.10;72.10
20492;DHT22;10404;51.468;6.762;2024-03-02T04:15:38;7.00;72.10
20492;DHT22;10404;51.468;6.762;2024-03-02T04:18:06;7.10;72.20
20492;DHT22;10404;51.468;6.762;2024-03-02T04:20:31;7.10;72.10
20492;DHT22;10404;51.468;6.762;2024-03-02T04:22:57;7.10;72.20
20492;DHT22;10404;51.468;6.762;2024-03-02T04:25:22;7.00;72.20
20492;DHT22;10404;51.468;6.762;2024-03-02T04:27:48;7.00;72.20
20492;DHT22;10404;51.468;6.762;2024-03-02T04:30:14;7.00;72.20
20492;DHT22;10404;51.468;6.762;2024-03-02T04:32:39;7.00;72.20
20492;DHT22;10404;51.468;6.762;2024-03-02T04:35:05;7.00;72.20
20492;DHT22;10404;51.468;6.762;2024-03-02T04:37:34;7.00;72.30
20492;DHT22;10404;51.468;6.762;2024-03-02T04:40:00;7.00;72.30
20492;DHT22;10404;51.468;6.762;2024-03-02T04:42:25;7.00;72.20
20492;DHT22;10404;51.468;6.762;2024-03-02T04:44:51;7.00;72.30
20492;DHT22;10404;51.468;6.762;2024-03-02T04:47:16;7.00;72.20
20492;DHT22;10404;51.468;6.762;2024-03-02T04:49:42;7.00;72.30
20492;DHT22;10404;51.468;6.762;2024-03-02T04:52:07;7.00;72.30
20492;DHT22;10404;51.468;6.762;2024-03-02T04:54:33;7.00;72.30
20492;DHT22;10404;51.468;6.762;2024-03-02T04:57:18;6.90;72.40
20492;DHT22;10404;51.468;6.762;2024-03-02T04:59:44;6.90;72.40
20492;DHT22;10404;51.468;6.762;2024-03-02T05:02:09;6.90;72.40
20492;DHT22;10404;51.468;6.762;2024-03-02T05:04:35;6.90;72.40
20492;DHT22;10404;51.468;6.762;2024-03-02T05:07:00;6.90;72.40
20492;DHT22;10404;51.468;6.762;2024-03-02T05:09:26;6.90;72.50
20492;DHT22;10404;51.468;6.762;2024-03-02T05:11:51;6.90;72.50
20492;DHT22;10404;51.468;6.762;2024-03-02T05:14:29;6.90;72.50
20492;DHT22;10404;51.468;6.762;2024-03-02T05:16:54;6.90;72.50
20492;DHT22;10404;51.468;6.762;2024-03-02T05:19:20;6.90;72.50
20492;DHT22;10404;51.468;6.762;2024-03-02T05:21:45;6.80;72.50
20492;DHT22;10404;51.468;6.762;2024-03-02T05:24:11;6.90;72.50
20492;DHT22;10404;51.468;6.762;2024-03-02T05:26:37;6.80;72.50
20492;DHT22;10404;51.468;6.762;2024-03-02T05:29:02;6.80;72.50
20492;DHT22;10404;51.468;6.762;2024-03-02T05:31:28;6.80;72.60
20492;DHT22;10404;51.468;6.762;2024-03-02T05:33:54;6.80;72.50
20492;DHT22;10404;51.468;6.762;2024-03-02T05:36:19;6.80;72.50
20492;DHT22;10404;51.468;6.762;2024-03-02T05:38:46;6.70;72.60
20492;DHT22;10404;51.468;6.762;2024-03-02T05:41:11;6.70;72.60
20492;DHT22;10404;51.468;6.762;2024-03-02T05:43:37;6.70;72.60
20492;DHT22;10404;51.468;6.762;2024-03-02T05:46:02;6.70;72.60
20492;DHT22;10404;51.468;6.762;2024-03-02T05:48:28;6.70;72.70
20492;DHT22;10404;51.468;6.762;2024-03-02T05:50:54;6.60;72.70
20492;DHT22;10404;51.468;6.762;2024-03-02T05:53:19;6.60;72.70
20492;DHT22;10404;51.468;6.762;2024-03-02T05:55:45;6.60;72.60
20492;DHT22;10404;51.468;6.762;2024-03-02T05:58:10;6.60;72.70
20492;DHT22;10404;51.468;6.762;2024-03-02T06:00:55;6.60;72.70
20492;DHT22;10404;51.468;6.762;2024-03-02T06:03:20;6.50;72.70
20492;DHT22;10404;51.468;6.762;2024-03-02T06:05:47;6.50;72.70
20492;DHT22;10404;51.468;6.762;2024-03-02T06:08:14;6.50;72.70
20492;DHT22;10404;51.468;6.762;2024-03-02T06:10:40;6.50;72.70
20492;DHT22;10404;51.468;6.762;2024-03-02T06:13:05;6.50;72.70
20492;DHT22;10404;51.468;6.762;2024-03-02T06:15:31;6.50;72.80
20492;DHT22;10404;51.468;6.762;2024-03-02T06:17:56;6.50;72.80
20492;DHT22;10404;51.468;6.762;2024-03-02T06:20:22;6.40;72.80
20492;DHT22;10404;51.468;6.762;2024-03-02T06:22:47;6.40;72.80
20492;DHT22;10404;51.468;6.762;2024-03-02T06:25:13;6.40;72.80
20492;DHT22;10404;51.468;6.762;2024-03-02T06:27:38;6.40;72.80
20492;DHT22;10404;51.468;6.762;2024-03-02T06:30:04;6.40;72.80
20492;DHT22;10404;51.468;6.762;2024-03-02T06:32:30;6.40;72.80
20492;DHT22;10404;51.468;6.762;2024-03-02T06:34:56;6.40;72.80
20492;DHT22;10404;51.468;6.762;2024-03-02T06:37:21;6.40;72.90
20492;DHT22;10404;51.468;6.762;2024-03-02T06:39:47;6.30;72.90
20492;DHT22;10404;51.468;6.762;2024-03-02T06:42:12;6.30;72.90
20492;DHT22;10404;51.468;6.762;2024-03-02T06:44:38;6.30;72.90
20492;DHT22;10404;51.468;6.762;2024-03-02T06:47:04;6.30;72.90
20492;DHT22;10404;51.468;6.762;2024-03-02T06:49:30;6.30;73.00
20492;DHT22;10404;51.468;6.762;2024-03-02T06:51:55;6.30;72.90
20492;DHT22;10404;51.468;6.762;2024-03-02T06:54:21;6.30;72.90
20492;DHT22;10404;51.468;6.762;2024-03-02T06:56:46;6.30;73.00
20492;DHT22;10404;51.468;6.762;2024-03-02T06:59:12;6.20;73.00
20492;DHT22;10404;51.468;6.762;2024-03-02T07:01:37;6.30;73.10
20492;DHT22;10404;51.468;6.762;2024-03-02T07:04:03;6.20;72.90
20492;DHT22;10404;51.468;6.762;2024-03-02T07:06:31;6.20;73.00
20492;DHT22;10404;51.468;6.762;2024-03-02T07:08:57;6.20;73.00
20492;DHT22;10404;51.468;6.762;2024-03-02T07:11:22;6.20;73.00
20492;DHT22;10404;51.468;6.762;2024-03-02T07:13:48;6.20;73.10
20492;DHT22;10404;51.468;6.762;2024-03-02T07:16:13;6.20;73.00
20492;DHT22;10404;51.468;6.762;2024-03-02T07:18:54;6.20;73.10
20492;DHT22;10404;51.468;6.762;2024-03-02T07:21:20;6.20;73.10
20492;DHT22;10404;51.468;6.762;2024-03-02T07:23:48;6.20;73.10
20492;DHT22;10404;51.468;6.762;2024-03-02T07:26:13;6.20;73.10
20492;DHT22;10404;51.468;6.762;2024-03-02T07:28:41;6.20;73.10
20492;DHT22;10404;51.468;6.762;2024-03-02T07:31:06;6.20;73.20
20492;DHT22;10404;51.468;6.762;2024-03-02T07:33:33;6.20;73.10
20492;DHT22;10404;51.468;6.762;2024-03-02T07:35:59;6.20;73.10
20492;DHT22;10404;51.468;6.762;2024-03-02T07:38:26;6.20;73.20
20492;DHT22;10404;51.468;6.762;2024-03-02T07:40:52;6.30;73.10
20492;DHT22;10404;51.468;6.762;2024-03-02T07:43:21;6.30;73.20
20492;DHT22;10404;51.468;6.762;2024-03-02T07:45:47;6.30;73.10
20492;DHT22;10404;51.468;6.762;2024-03-02T07:48:13;6.40;73.00
20492;DHT22;10404;51.468;6.762;2024-03-02T07:50:38;6.50;73.00
20492;DHT22;10404;51.468;6.762;2024-03-02T07:53:05;6.60;72.80
20492;DHT22;10404;51.468;6.762;2024-03-02T07:55:31;6.80;72.40
20492;DHT22;10404;51.468;6.762;2024-03-02T07:57:57;6.90;72.10
20492;DHT22;10404;51.468;6.762;2024-03-02T08:00:23;7.00;71.80
20492;DHT22;10404;51.468;6.762;2024-03-02T08:02:50;7.00;71.70
20492;DHT22;10404;51.468;6.762;2024-03-02T08:05:16;7.00;71.70
20492;DHT22;10404;51.468;6.762;2024-03-02T08:07:43;7.20;71.70
20492;DHT22;10404;51.468;6.762;2024-03-02T08:10:10;7.20;71.60
20492;DHT22;10404;51.468;6.762;2024-03-02T08:12:36;7.20;71.60
20492;DHT22;10404;51.468;6.762;2024-03-02T08:15:01;7.20;71.70
20492;DHT22;10404;51.468;6.762;2024-03-02T08:17:27;7.20;71.80
20492;DHT22;10404;51.468;6.762;2024-03-02T08:19:53;7.30;71.90
20492;DHT22;10404;51.468;6.762;2024-03-02T08:22:19;7.50;71.50
20492;DHT22;10404;51.468;6.762;2024-03-02T08:24:45;7.60;71.30
20492;DHT22;10404;51.468;6.762;2024-03-02T08:27:10;7.80;70.90
20492;DHT22;10404;51.468;6.762;2024-03-02T08:29:36;7.90;70.70
20492;DHT22;10404;51.468;6.762;2024-03-02T08:32:02;8.00;70.40
20492;DHT22;10404;51.468;6.762;2024-03-02T08:34:27;8.10;70.20
20492;DHT22;10404;51.468;6.762;2024-03-02T08:36:53;8.10;70.30
20492;DHT22;10404;51.468;6.762;2024-03-02T08:39:19;8.10;70.60
20492;DHT22;10404;51.468;6.762;2024-03-02T08:41:45;8.20;70.40
20492;DHT22;10404;51.468;6.762;2024-03-02T08:44:12;8.30;70.40
20492;DHT22;10404;51.468;6.762;2024-03-02T08:46:38;8.40;70.10
20492;DHT22;10404;51.468;6.762;2024-03-02T08:49:04;8.50;70.20
20492;DHT22;10404;51.468;6.762;2024-03-02T08:51:30;8.50;70.20
20492;DHT22;10404;51.468;6.762;2024-03-02T08:53:56;8.60;70.00
20492;DHT22;10404;51.468;6.762;2024-03-02T08:56:22;8.70;69.90
20492;DHT22;10404;51.468;6.762;2024-03-02T08:58:49;8.80;69.70
20492;DHT22;10404;51.468;6.762;2024-03-02T09:01:15;9.00;69.50
20492;DHT22;10404;51.468;6.762;2024-03-02T09:03:42;9.00;69.40
20492;DHT22;10404;51.468;6.762;2024-03-02T09:06:10;9.10;69.20
20492;DHT22;10404;51.468;6.762;2024-03-02T09:08:35;9.20;69.00
20492;DHT22;10404;51.468;6.762;2024-03-02T09:11:05;9.40;68.60
20492;DHT22;10404;51.468;6.762;2024-03-02T09:13:32;9.40;68.60
20492;DHT22;10404;51.468;6.762;2024-03-02T09:15:58;9.40;68.50
20492;DHT22;10404;51.468;6.762;2024-03-02T09:18:23;9.50;68.50
20492;DHT22;10404;51.468;6.762;2024-03-02T09:20:49;9.60;68.40
20492;DHT22;10404;51.468;6.762;2024-03-02T09:23:14;9.70;68.30
20492;DHT22;10404;51.468;6.762;2024-03-02T09:25:40;9.80;68.00
20492;DHT22;10404;51.468;6.762;2024-03-02T09:28:05;9.90;68.20
20492;DHT22;10404;51.468;6.762;2024-03-02T09:30:32;10.00;68.00
20492;DHT22;10404;51.468;6.762;2024-03-02T09:32:58;10.00;68.10
20492;DHT22;10404;51.468;6.762;2024-03-02T09:35:24;10.00;68.00
20492;DHT22;10404;51.468;6.762;2024-03-02T09:37:50;10.10;67.80
20492;DHT22;10404;51.468;6.762;2024-03-02T09:40:16;10.20;67.80
20492;DHT22;10404;51.468;6.762;2024-03-02T09:42:41;10.20;67.80
20492;DHT22;10404;51.468;6.762;2024-03-02T09:45:09;10.20;67.80
20492;DHT22;10404;51.468;6.762;2024-03-02T09:47:34;10.30;67.50
20492;DHT22;10404;51.468;6.762;2024-03-02T09:50:00;10.30;67.80
20492;DHT22;10404;51.468;6.762;2024-03-02T09:52:26;10.30;67.90
20492;DHT22;10404;51.468;6.762;2024-03-02T09:54:52;10.40;68.00
20492;DHT22;10404;51.468;6.762;2024-03-02T09:57:17;10.40;68.00
20492;DHT22;10404;51.468;6.762;2024-03-02T09:59:43;10.50;67.80
20492;DHT22;10404;51.468;6.762;2024-03-02T10:02:10;10.40;68.30
20492;DHT22;10404;51.468;6.762;2024-03-02T10:04:35;10.40;68.30
20492;DHT22;10404;51.468;6.762;2024-03-02T10:07:15;10.40;68.30
20492;DHT22;10404;51.468;6.762;2024-03-02T10:09:45;10.40;68.30
20492;DHT22;10404;51.468;6.762;2024-03-02T10:12:12;10.40;68.60
20492;DHT22;10404;51.468;6.762;2024-03-02T10:14:38;10.50;68.40
20492;DHT22;10404;51.468;6.762;2024-03-02T10:17:09;10.50;68.40
20492;DHT22;10404;51.468;6.762;2024-03-02T10:19:36;10.60;68.50
20492;DHT22;10404;51.468;6.762;2024-03-02T10:22:03;10.60;68.30
20492;DHT22;10404;51.468;6.762;2024-03-02T10:24:43;10.60;68.30
20492;DHT22;10404;51.468;6.762;2024-03-02T10:27:26;10.70;68.30
20492;DHT22;10404;51.468;6.762;2024-03-02T10:29:52;10.70;68.20
20492;DHT22;10404;51.468;6.762;2024-03-02T10:32:18;10.80;68.20
20492;DHT22;10404;51.468;6.762;2024-03-02T10:34:45;10.80;68.20
20492;DHT22;10404;51.468;6.762;2024-03-02T10:37:11;10.80;68.20
20492;DHT22;10404;51.468;6.762;2024-03-02T10:39:37;10.90;68.20
20492;DHT22;10404;51.468;6.762;2024-03-02T10:42:06;10.90;68.00
20492;DHT22;10404;51.468;6.762;2024-03-02T10:44:32;10.90;68.20
20492;DHT22;10404;51.468;6.762;2024-03-02T10:47:03;11.00;67.90
20492;DHT22;10404;51.468;6.762;2024-03-02T10:49:30;11.00;68.00
20492;DHT22;10404;51.468;6.762;2024-03-02T10:51:59;11.00;68.20
20492;DHT22;10404;51.468;6.762;2024-03-02T10:54:25;11.10;68.30
20492;DHT22;10404;51.468;6.762;2024-03-02T10:57:01;11.10;68.00
20492;DHT22;10404;51.468;6.762;2024-03-02T10:59:36;11.10;67.80
20492;DHT22;10404;51.468;6.762;2024-03-02T11:02:04;11.10;68.00
20492;DHT22;10404;51.468;6.762;2024-03-02T11:04:30;11.10;68.00
20492;DHT22;10404;51.468;6.762;2024-03-02T11:07:07;11.10;68.00
20492;DHT22;10404;51.468;6.762;2024-03-02T11:09:36;11.10;68.20
20492;DHT22;10404;51.468;6.762;2024-03-02T11:14:31;11.30;67.90
20492;DHT22;10404;51.468;6.762;2024-03-02T11:16:59;11.30;67.80
20492;DHT22;10404;51.468;6.762;2024-03-02T11:19:25;11.40;68.00
20492;DHT22;10404;51.468;6.762;2024-03-02T11:21:51;11.40;68.20
20492;DHT22;10404;51.468;6.762;2024-03-02T11:26:50;11.40;68.20
20492;DHT22;10404;51.468;6.762;2024-03-02T11:32:22;11.40;68.40
20492;DHT22;10404;51.468;6.762;2024-03-02T11:34:51;11.40;68.30
20492;DHT22;10404;51.468;6.762;2024-03-02T11:37:18;11.50;68.20
20492;DHT22;10404;51.468;6.762;2024-03-02T11:39:49;11.50;68.10
20492;DHT22;10404;51.468;6.762;2024-03-02T11:42:15;11.50;67.90
20492;DHT22;10404;51.468;6.762;2024-03-02T11:44:43;11.50;68.20
20492;DHT22;10404;51.468;6.762;2024-03-02T11:47:12;11.60;68.20
20492;DHT22;10404;51.468;6.762;2024-03-02T11:49:44;11.70;68.20
20492;DHT22;10404;51.468;6.762;2024-03-02T11:52:14;11.70;68.20
20492;DHT22;10404;51.468;6.762;2024-03-02T11:54:42;11.70;68.30
20492;DHT22;10404;51.468;6.762;2024-03-02T11:57:18;11.70;68.40
20492;DHT22;10404;51.468;6.762;2024-03-02T11:59:44;11.70;68.60
20492;DHT22;10404;51.468;6.762;2024-03-02T12:02:19;11.70;68.70
20492;DHT22;10404;51.468;6.762;2024-03-02T12:04:45;11.70;68.70
20492;DHT22;10404;51.468;6.762;2024-03-02T12:07:21;11.80;68.80
20492;DHT22;10404;51.468;6.762;2024-03-02T12:09:48;11.90;68.70
20492;DHT22;10404;51.468;6.762;2024-03-02T12:12:14;11.90;68.70
20492;DHT22;10404;51.468;6.762;2024-03-02T12:14:51;11.90;68.70
20492;DHT22;10404;51.468;6.762;2024-03-02T12:17:17;11.90;68.90
20492;DHT22;10404;51.468;6.762;2024-03-02T12:19:43;12.00;68.60
20492;DHT22;10404;51.468;6.762;2024-03-02T12:22:09;12.00;68.50
20492;DHT22;10404;51.468;6.762;2024-03-02T12:24:35;12.00;68.60
20492;DHT22;10404;51.468;6.762;2024-03-02T12:27:01;12.10;68.60
20492;DHT22;10404;51.468;6.762;2024-03-02T12:29:26;12.10;68.40
20492;DHT22;10404;51.468;6.762;2024-03-02T12:31:53;12.10;68.30
20492;DHT22;10404;51.468;6.762;2024-03-02T12:34:18;12.20;68.00
20492;DHT22;10404;51.468;6.762;2024-03-02T12:36:46;12.20;68.20
20492;DHT22;10404;51.468;6.762;2024-03-02T12:39:18;12.30;67.90
20492;DHT22;10404;51.468;6.762;2024-03-02T12:41:43;12.30;67.50
20492;DHT22;10404;51.468;6.762;2024-03-02T12:44:09;12.50;67.50
20492;DHT22;10404;51.468;6.762;2024-03-02T12:46:35;12.50;67.60
20492;DHT22;10404;51.468;6.762;2024-03-02T12:49:15;12.50;67.50
20492;DHT22;10404;51.468;6.762;2024-03-02T12:51:45;12.50;67.70
20492;DHT22;10404;51.468;6.762;2024-03-02T12:54:17;12.50;67.40
20492;DHT22;10404;51.468;6.762;2024-03-02T12:56:43;12.60;67.60
20492;DHT22;10404;51.468;6.762;2024-03-02T12:59:19;12.70;67.60
20492;DHT22;10404;51.468;6.762;2024-03-02T13:01:54;12.70;67.50
20492;DHT22;10404;51.468;6.762;2024-03-02T13:04:27;12.70;67.50
20492;DHT22;10404;51.468;6.762;2024-03-02T13:06:54;12.70;66.90
20492;DHT22;10404;51.468;6.762;2024-03-02T13:09:22;12.80;67.20
20492;DHT22;10404;51.468;6.762;2024-03-02T13:11:48;12.90;67.20
20492;DHT22;10404;51.468;6.762;2024-03-02T13:14:13;12.90;67.30
20492;DHT22;10404;51.468;6.762;2024-03-02T13:16:42;12.90;66.90
20492;DHT22;10404;51.468;6.762;2024-03-02T13:19:12;12.90;66.90
20492;DHT22;10404;51.468;6.762;2024-03-02T13:21:38;13.00;66.90
20492;DHT22;10404;51.468;6.762;2024-03-02T13:24:04;13.00;66.70
20492;DHT22;10404;51.468;6.762;2024-03-02T13:26:30;13.00;66.30
20492;DHT22;10404;51.468;6.762;2024-03-02T13:28:56;13.00;66.10
20492;DHT22;10404;51.468;6.762;2024-03-02T13:31:21;13.10;65.90
20492;DHT22;10404;51.468;6.762;2024-03-02T13:33:47;13.10;65.00
20492;DHT22;10404;51.468;6.762;2024-03-02T13:36:13;13.10;65.70
20492;DHT22;10404;51.468;6.762;2024-03-02T13:38:38;13.10;65.90
20492;DHT22;10404;51.468;6.762;2024-03-02T13:41:04;13.10;66.00
20492;DHT22;10404;51.468;6.762;2024-03-02T13:43:29;13.20;65.50
20492;DHT22;10404;51.468;6.762;2024-03-02T13:46:00;13.30;66.10
20492;DHT22;10404;51.468;6.762;2024-03-02T13:48:25;13.30;65.60
20492;DHT22;10404;51.468;6.762;2024-03-02T13:50:51;13.30;65.60
20492;DHT22;10404;51.468;6.762;2024-03-02T13:53:18;13.40;66.10
20492;DHT22;10404;51.468;6.762;2024-03-02T13:55:44;13.50;66.20
20492;DHT22;10404;51.468;6.762;2024-03-02T13:58:10;13.50;66.10
20492;DHT22;10404;51.468;6.762;2024-03-02T14:00:37;13.50;66.40
20492;DHT22;10404;51.468;6.762;2024-03-02T14:03:05;13.50;66.30
20492;DHT22;10404;51.468;6.762;2024-03-02T14:05:31;13.50;66.50
20492;DHT22;10404;51.468;6.762;2024-03-02T14:07:57;13.50;66.20
20492;DHT22;10404;51.468;6.762;2024-03-02T14:10:22;13.50;66.20
20492;DHT22;10404;51.468;6.762;2024-03-02T14:12:49;13.50;66.30
20492;DHT22;10404;51.468;6.762;2024-03-02T14:15:14;13.60;66.20
20492;DHT22;10404;51.468;6.762;2024-03-02T14:17:40;13.60;66.20
20492;DHT22;10404;51.468;6.762;2024-03-02T14:20:06;13.60;65.80
20492;DHT22;10404;51.468;6.762;2024-03-02T14:22:32;13.60;65.00
20492;DHT22;10404;51.468;6.762;2024-03-02T14:24:59;13.60;65.80
20492;DHT22;10404;51.468;6.762;2024-03-02T14:27:25;13.60;65.50
20492;DHT22;10404;51.468;6.762;2024-03-02T14:29:51;13.70;65.80
20492;DHT22;10404;51.468;6.762;2024-03-02T14:32:16;13.70;66.00
20492;DHT22;10404;51.468;6.762;2024-03-02T14:34:42;13.70;66.10
20492;DHT22;10404;51.468;6.762;2024-03-02T14:37:07;13.70;65.30
20492;DHT22;10404;51.468;6.762;2024-03-02T14:39:33;13.70;65.40
20492;DHT22;10404;51.468;6.762;2024-03-02T14:42:00;13.70;65.50
20492;DHT22;10404;51.468;6.762;2024-03-02T14:44:26;13.80;65.70
20492;DHT22;10404;51.468;6.762;2024-03-02T14:46:52;13.80;65.60
20492;DHT22;10404;51.468;6.762;2024-03-02T14:49:18;13.90;65.90
20492;DHT22;10404;51.468;6.762;2024-03-02T14:51:44;13.90;66.00
20492;DHT22;10404;51.468;6.762;2024-03-02T14:54:09;13.90;66.20
20492;DHT22;10404;51.468;6.762;2024-03-02T14:56:35;13.90;65.90
20492;DHT22;10404;51.468;6.762;2024-03-02T14:59:00;13.90;65.90
20492;DHT22;10404;51.468;6.762;2024-03-02T15:01:26;13.90;65.50
20492;DHT22;10404;51.468;6.762;2024-03-02T15:03:52;13.90;65.10
20492;DHT22;10404;51.468;6.762;2024-03-02T15:06:18;13.90;65.30
20492;DHT22;10404;51.468;6.762;2024-03-02T15:08:43;13.90;65.70
20492;DHT22;10404;51.468;6.762;2024-03-02T15:11:11;13.90;65.60
20492;DHT22;10404;51.468;6.762;2024-03-02T15:13:37;13.90;66.00
20492;DHT22;10404;51.468;6.762;2024-03-02T15:16:03;14.00;65.70
20492;DHT22;10404;51.468;6.762;2024-03-02T15:18:29;14.00;65.80
20492;DHT22;10404;51.468;6.762;2024-03-02T15:20:54;14.00;65.90
20492;DHT22;10404;51.468;6.762;2024-03-02T15:23:20;14.10;65.70
20492;DHT22;10404;51.468;6.762;2024-03-02T15:25:45;14.10;65.80
20492;DHT22;10404;51.468;6.762;2024-03-02T15:28:11;14.10;65.80
20492;DHT22;10404;51.468;6.762;2024-03-02T15:30:36;14.10;65.90
20492;DHT22;10404;51.468;6.762;2024-03-02T15:33:02;14.10;65.80
20492;DHT22;10404;51.468;6.762;2024-03-02T15:35:28;14.10;65.30
20492;DHT22;10404;51.468;6.762;2024-03-02T15:37:54;14.10;61.40
20492;DHT22;10404;51.468;6.762;2024-03-02T15:40:19;14.20;55.30
20492;DHT22;10404;51.468;6.762;2024-03-02T15:42:45;14.20;54.50
20492;DHT22;10404;51.468;6.762;2024-03-02T15:45:10;14.10;54.30
20492;DHT22;10404;51.468;6.762;2024-03-02T15:47:36;14.20;56.00
20492;DHT22;10404;51.468;6.762;2024-03-02T15:50:02;14.20;54.90